createdAt,value
2023-01-27T00:01:19.785Z,6.90
2023-01-27T00:02:41.575Z,6.38
2023-01-27T00:04:01.823Z,6.45
2023-01-27T00:05:22.518Z,6.72
2023-01-27T00:06:42.889Z,5.93
2023-01-27T00:08:03.974Z,5.97
2023-01-27T00:09:24.455Z,7.27
2023-01-27T00:10:45.344Z,6.28
2023-01-27T00:12:06.074Z,5.25
2023-01-27T00:13:26.563Z,5.20
2023-01-27T00:14:48.249Z,4.80
2023-01-27T00:16:08.842Z,5.30
2023-01-27T00:17:29.507Z,4.75
2023-01-27T00:18:50.209Z,6.60
2023-01-27T00:20:11.846Z,6.28
2023-01-27T00:22:52.780Z,5.38
2023-01-27T00:24:13.888Z,4.30
2023-01-27T00:25:34.790Z,5.88
2023-01-27T00:26:55.487Z,6.05
2023-01-27T00:28:16.398Z,5.63
2023-01-27T00:29:37.518Z,3.92
2023-01-27T00:31:00.221Z,4.25
2023-01-27T00:32:20.827Z,5.07
2023-01-27T00:33:41.310Z,4.43
2023-01-27T00:35:01.791Z,3.45
2023-01-27T00:36:22.650Z,3.88
2023-01-27T00:37:43.261Z,3.30
2023-01-27T00:39:04.160Z,4.25
2023-01-27T00:40:24.554Z,4.30
2023-01-27T00:41:45.122Z,5.15
2023-01-27T00:43:05.778Z,4.43
2023-01-27T00:44:25.983Z,4.40
2023-01-27T00:45:47.149Z,3.85
2023-01-27T00:47:09.377Z,4.13
2023-01-27T00:48:29.931Z,4.38
2023-01-27T00:49:50.556Z,4.07
2023-01-27T00:51:11.683Z,4.90
2023-01-27T00:52:32.363Z,4.28
2023-01-27T00:53:53.252Z,4.63
2023-01-27T00:55:14.219Z,4.20
2023-01-27T00:56:35.286Z,3.88
2023-01-27T00:57:55.829Z,3.78
2023-01-27T00:59:16.362Z,2.92
2023-01-27T01:00:36.694Z,3.38
2023-01-27T01:01:57.582Z,3.70
2023-01-27T01:03:19.515Z,2.90
2023-01-27T01:04:40.207Z,2.78
2023-01-27T01:06:01.596Z,2.95
2023-01-27T01:07:22.134Z,2.95
2023-01-27T01:08:43.674Z,2.60
2023-01-27T01:10:04.675Z,2.50
2023-01-27T01:11:26.097Z,3.42
2023-01-27T01:12:46.550Z,2.65
2023-01-27T01:14:07.122Z,2.88
2023-01-27T01:15:28.216Z,2.70
2023-01-27T01:16:48.880Z,3.88
2023-01-27T01:18:10.374Z,2.95
2023-01-27T01:19:32.364Z,3.50
2023-01-27T01:20:53.004Z,2.47
2023-01-27T01:22:13.696Z,2.95
2023-01-27T01:23:34.560Z,3.30
2023-01-27T01:24:55.197Z,2.92
2023-01-27T01:26:17.178Z,3.05
2023-01-27T01:27:37.919Z,4.10
2023-01-27T01:28:58.577Z,3.10
2023-01-27T01:30:19.495Z,3.20
2023-01-27T01:31:40.401Z,3.20
2023-01-27T01:33:01.759Z,3.47
2023-01-27T01:34:22.411Z,2.83
2023-01-27T01:35:44.349Z,2.78
2023-01-27T01:37:05.419Z,3.22
2023-01-27T01:38:26.146Z,3.28
2023-01-27T01:39:46.899Z,3.17
2023-01-27T01:41:09.689Z,3.22
2023-01-27T01:42:55.438Z,3.22
2023-01-27T01:44:22.492Z,3.30
2023-01-27T01:45:54.086Z,3.33
2023-01-27T01:47:16.095Z,3.10
2023-01-27T01:48:38.391Z,3.53
2023-01-27T01:49:59.219Z,3.95
2023-01-27T01:51:24.129Z,3.75
2023-01-27T01:52:44.596Z,3.58
2023-01-27T01:54:08.181Z,3.35
2023-01-27T01:55:29.509Z,4.25
2023-01-27T01:56:53.621Z,3.33
2023-01-27T01:58:14.166Z,3.63
2023-01-27T01:59:38.319Z,4.18
2023-01-27T02:00:59.545Z,4.22
2023-01-27T02:02:24.388Z,3.95
2023-01-27T02:03:50.771Z,3.83
2023-01-27T02:05:14.423Z,4.20
2023-01-27T02:06:40.967Z,3.90
2023-01-27T02:08:05.371Z,4.07
2023-01-27T02:09:27.767Z,3.75
2023-01-27T02:10:48.577Z,3.63
2023-01-27T02:12:09.068Z,4.07
2023-01-27T02:13:29.343Z,4.28
2023-01-27T02:14:50.640Z,3.97
2023-01-27T02:16:11.672Z,3.67
2023-01-27T02:17:32.391Z,4.32
2023-01-27T02:18:52.682Z,4.00
2023-01-27T02:20:20.747Z,3.90
2023-01-27T02:21:42.658Z,3.90
2023-01-27T02:23:08.066Z,4.57
2023-01-27T02:24:33.420Z,4.65
2023-01-27T02:25:57.765Z,4.90
2023-01-27T02:27:18.359Z,5.00
2023-01-27T02:28:38.816Z,4.72
2023-01-27T02:30:00.124Z,5.35
2023-01-27T02:32:41.307Z,4.65
2023-01-27T02:34:04.976Z,4.65
2023-01-27T02:35:29.939Z,3.72
2023-01-27T02:36:53.122Z,4.47
2023-01-27T02:38:14.521Z,5.68
2023-01-27T02:39:39.712Z,5.43
2023-01-27T02:41:04.926Z,4.80
2023-01-27T02:42:25.454Z,4.85
2023-01-27T02:43:47.066Z,5.63
2023-01-27T02:46:28.375Z,5.30
2023-01-27T02:47:49.063Z,5.32
2023-01-27T02:49:09.497Z,5.50
2023-01-27T02:50:29.695Z,5.88
2023-01-27T02:51:50.504Z,5.80
2023-01-27T02:53:11.423Z,5.93
2023-01-27T02:54:31.805Z,5.18
2023-01-27T02:55:52.140Z,6.88
2023-01-27T02:57:13.829Z,6.30
2023-01-27T02:58:34.686Z,6.68
2023-01-27T02:59:55.371Z,6.55
2023-01-27T03:01:15.933Z,6.97
2023-01-27T03:02:36.344Z,6.63
2023-01-27T03:03:56.661Z,6.78
2023-01-27T03:05:17.315Z,7.45
2023-01-27T03:06:39.187Z,7.38
2023-01-27T03:08:00.458Z,7.20
2023-01-27T03:09:21.162Z,7.47
2023-01-27T03:10:41.752Z,8.57
2023-01-27T03:12:01.958Z,7.60
2023-01-27T03:13:24.539Z,9.27
2023-01-27T03:14:45.181Z,9.45
2023-01-27T03:16:06.936Z,10.18
2023-01-27T03:17:27.696Z,9.68
2023-01-27T03:18:48.321Z,10.60
2023-01-27T03:20:10.132Z,10.50
2023-01-27T03:21:30.849Z,10.57
2023-01-27T03:22:51.633Z,10.77
2023-01-27T03:24:12.448Z,11.13
2023-01-27T03:25:33.189Z,12.05
2023-01-27T03:26:56.346Z,10.63
2023-01-27T03:28:17.069Z,10.57
2023-01-27T03:29:39.085Z,10.77
2023-01-27T03:31:00.648Z,11.15
2023-01-27T03:32:21.329Z,11.15
2023-01-27T03:33:41.739Z,10.60
2023-01-27T03:35:02.078Z,10.80
2023-01-27T03:36:22.778Z,11.63
2023-01-27T03:37:44.187Z,12.57
2023-01-27T03:39:04.944Z,11.50
2023-01-27T03:40:25.340Z,12.75
2023-01-27T03:41:46.075Z,13.00
2023-01-27T03:43:06.774Z,13.00
2023-01-27T03:44:27.635Z,13.68
2023-01-27T03:45:51.412Z,13.27
2023-01-27T03:47:11.688Z,12.07
2023-01-27T03:48:32.385Z,12.15
2023-01-27T03:49:52.886Z,12.10
2023-01-27T03:51:13.649Z,12.63
2023-01-27T03:52:34.259Z,13.07
2023-01-27T03:53:54.958Z,13.67
2023-01-27T03:55:15.707Z,12.88
2023-01-27T03:56:36.081Z,12.70
2023-01-27T03:57:56.445Z,12.52
2023-01-27T03:59:17.173Z,12.32
2023-01-27T04:00:37.805Z,12.47
2023-01-27T04:02:01.071Z,13.73
2023-01-27T04:03:22.886Z,11.77
2023-01-27T04:04:43.474Z,13.20
2023-01-27T04:06:04.391Z,13.25
2023-01-27T04:07:24.780Z,13.65
2023-01-27T04:08:45.385Z,13.63
2023-01-27T04:10:06.754Z,13.63
2023-01-27T04:11:27.274Z,14.70
2023-01-27T04:12:48.611Z,14.85
2023-01-27T04:14:11.391Z,13.43
2023-01-27T04:15:32.115Z,14.40
2023-01-27T04:16:53.525Z,15.13
2023-01-27T04:18:15.347Z,13.68
2023-01-27T04:19:36.072Z,14.60
2023-01-27T04:20:56.631Z,14.90
2023-01-27T04:22:17.477Z,15.50
2023-01-27T04:23:38.443Z,15.20
2023-01-27T04:24:59.034Z,14.80
2023-01-27T04:26:19.731Z,14.70
2023-01-27T04:27:40.082Z,14.60
2023-01-27T04:29:01.116Z,15.30
2023-01-27T04:30:21.731Z,16.17
2023-01-27T04:31:42.311Z,16.40
2023-01-27T04:33:02.899Z,16.13
2023-01-27T04:34:25.778Z,15.55
2023-01-27T04:35:46.736Z,15.40
2023-01-27T04:37:08.233Z,16.08
2023-01-27T04:39:48.761Z,15.65
2023-01-27T04:41:09.463Z,17.00
2023-01-27T04:42:29.953Z,17.73
2023-01-27T04:43:50.755Z,16.67
2023-01-27T04:45:11.812Z,15.48
2023-01-27T04:46:33.214Z,15.30
2023-01-27T04:47:53.567Z,14.25
2023-01-27T04:49:13.941Z,16.65
2023-01-27T04:50:36.103Z,15.15
2023-01-27T04:51:56.909Z,13.18
2023-01-27T04:53:17.584Z,12.73
2023-01-27T04:54:38.485Z,12.10
2023-01-27T04:56:02.196Z,12.07
2023-01-27T04:57:22.878Z,10.95
2023-01-27T04:58:43.567Z,11.07
2023-01-27T05:00:04.714Z,10.90
2023-01-27T05:01:25.454Z,10.30
2023-01-27T05:02:45.807Z,9.80
2023-01-27T05:04:06.272Z,10.30
2023-01-27T05:05:27.005Z,10.02
2023-01-27T05:06:49.217Z,10.13
2023-01-27T05:08:10.569Z,9.65
2023-01-27T05:09:30.760Z,9.55
2023-01-27T05:10:51.175Z,9.13
2023-01-27T05:12:11.670Z,8.30
2023-01-27T05:13:32.108Z,8.27
2023-01-27T05:14:52.659Z,7.22
2023-01-27T05:16:14.405Z,6.70
2023-01-27T05:17:35.149Z,7.07
2023-01-27T05:18:55.893Z,6.55
2023-01-27T05:20:17.049Z,6.30
2023-01-27T05:21:37.521Z,6.28
2023-01-27T05:22:59.522Z,6.10
2023-01-27T05:24:20.244Z,6.57
2023-01-27T05:25:43.759Z,5.93
2023-01-27T05:27:04.575Z,5.78
2023-01-27T05:28:25.002Z,5.50
2023-01-27T05:29:46.004Z,5.57
2023-01-27T05:31:09.132Z,5.18
2023-01-27T05:32:29.742Z,5.15
2023-01-27T05:33:51.834Z,4.78
2023-01-27T05:35:12.572Z,5.30
2023-01-27T05:36:33.454Z,5.15
2023-01-27T05:37:54.083Z,5.05
2023-01-27T05:39:16.070Z,5.40
2023-01-27T05:40:36.744Z,5.68
2023-01-27T05:41:57.711Z,5.68
2023-01-27T05:43:18.715Z,5.78
2023-01-27T05:44:39.369Z,6.57
2023-01-27T05:46:05.643Z,5.85
2023-01-27T05:47:26.585Z,5.90
2023-01-27T05:48:48.499Z,5.75
2023-01-27T05:50:10.348Z,5.13
2023-01-27T05:51:32.177Z,5.45
2023-01-27T05:52:52.867Z,4.97
2023-01-27T05:54:14.998Z,5.35
2023-01-27T05:55:35.694Z,5.40
2023-01-27T05:56:56.459Z,5.25
2023-01-27T05:58:17.405Z,5.35
2023-01-27T05:59:37.949Z,5.68
2023-01-27T06:01:07.107Z,5.40
2023-01-27T06:02:28.010Z,4.65
2023-01-27T06:03:49.033Z,4.80
2023-01-27T06:05:09.801Z,4.90
2023-01-27T06:06:32.576Z,4.43
2023-01-27T06:07:53.355Z,4.78
2023-01-27T06:09:15.471Z,4.90
2023-01-27T06:10:36.171Z,5.03
2023-01-27T06:11:56.422Z,4.90
2023-01-27T06:13:16.831Z,4.57
2023-01-27T06:14:37.208Z,5.07
2023-01-27T06:15:57.970Z,4.80
2023-01-27T06:17:18.616Z,4.30
2023-01-27T06:18:39.596Z,4.20
2023-01-27T06:20:01.067Z,4.63
2023-01-27T06:21:21.850Z,4.22
2023-01-27T06:22:42.385Z,5.00
2023-01-27T06:24:03.657Z,4.63
2023-01-27T06:25:25.780Z,4.32
2023-01-27T06:26:46.175Z,4.95
2023-01-27T06:28:09.264Z,4.65
2023-01-27T06:29:30.600Z,4.90
2023-01-27T06:30:51.232Z,4.85
2023-01-27T06:32:11.868Z,4.53
2023-01-27T06:33:32.399Z,4.60
2023-01-27T06:34:53.049Z,4.40
2023-01-27T06:36:15.367Z,4.90
2023-01-27T06:37:36.107Z,4.03
2023-01-27T06:38:56.904Z,4.40
2023-01-27T06:40:17.763Z,4.93
2023-01-27T06:41:39.612Z,4.73
2023-01-27T06:43:00.501Z,4.10
2023-01-27T06:44:21.163Z,3.97
2023-01-27T06:45:42.131Z,3.70
2023-01-27T06:47:03.007Z,3.65
2023-01-27T06:48:23.763Z,3.42
2023-01-27T06:49:44.159Z,3.87
2023-01-27T06:51:05.075Z,3.40
2023-01-27T06:52:25.724Z,3.65
2023-01-27T06:53:46.303Z,3.35
2023-01-27T06:55:07.408Z,3.25
2023-01-27T06:56:28.651Z,3.38
2023-01-27T06:57:50.703Z,3.17
2023-01-27T06:59:11.698Z,3.40
2023-01-27T07:00:32.082Z,3.50
2023-01-27T07:01:52.745Z,2.75
2023-01-27T07:04:34.011Z,3.13
2023-01-27T07:05:54.441Z,2.88
2023-01-27T07:07:15.155Z,3.30
2023-01-27T07:08:35.855Z,3.45
2023-01-27T07:09:56.169Z,3.33
2023-01-27T07:11:16.591Z,3.47
2023-01-27T07:12:37.085Z,3.10
2023-01-27T07:13:59.216Z,4.32
2023-01-27T07:15:20.046Z,3.28
2023-01-27T07:16:40.392Z,3.08
2023-01-27T07:18:02.112Z,3.20
2023-01-27T07:19:22.691Z,3.00
2023-01-27T07:20:43.409Z,2.97
2023-01-27T07:22:04.443Z,3.35
2023-01-27T07:23:25.560Z,3.03
2023-01-27T07:24:46.084Z,3.60
2023-01-27T07:26:19.259Z,3.00
2023-01-27T07:27:45.103Z,3.20
2023-01-27T07:29:07.205Z,3.88
2023-01-27T07:30:28.719Z,3.30
2023-01-27T07:33:11.481Z,3.13
2023-01-27T07:34:32.087Z,3.90
2023-01-27T07:35:52.409Z,3.15
2023-01-27T07:37:13.756Z,3.53
2023-01-27T07:38:36.853Z,3.35
2023-01-27T07:39:57.708Z,3.92
2023-01-27T07:41:21.517Z,3.58
2023-01-27T07:42:42.555Z,3.60
2023-01-27T07:44:03.571Z,3.63
2023-01-27T07:45:27.958Z,3.20
2023-01-27T07:46:48.688Z,3.45
2023-01-27T07:48:11.719Z,3.50
2023-01-27T07:49:32.178Z,3.65
2023-01-27T07:50:52.534Z,3.22
2023-01-27T07:52:13.143Z,3.30
2023-01-27T07:53:33.966Z,3.30
2023-01-27T07:54:54.440Z,3.30
2023-01-27T07:56:15.354Z,3.35
2023-01-27T07:57:36.016Z,3.45
2023-01-27T07:58:56.606Z,3.37
2023-01-27T08:00:18.184Z,3.35
2023-01-27T08:01:40.030Z,3.60
2023-01-27T08:03:01.937Z,3.10
2023-01-27T08:04:23.205Z,3.72
2023-01-27T08:05:43.942Z,3.97
2023-01-27T08:07:04.419Z,3.10
2023-01-27T08:09:46.294Z,3.25
2023-01-27T08:11:09.099Z,3.50
2023-01-27T08:12:29.417Z,3.15
2023-01-27T08:13:49.969Z,3.03
2023-01-27T08:15:11.041Z,3.08
2023-01-27T08:16:31.702Z,2.83
2023-01-27T08:17:58.297Z,3.22
2023-01-27T08:19:18.950Z,2.78
2023-01-27T08:20:39.278Z,2.70
2023-01-27T08:22:00.051Z,2.47
2023-01-27T08:23:21.532Z,2.50
2023-01-27T08:24:42.026Z,2.50
2023-01-27T08:26:05.144Z,2.67
2023-01-27T08:27:25.548Z,2.90
2023-01-27T08:28:46.258Z,2.80
2023-01-27T08:30:08.552Z,2.90
2023-01-27T08:31:29.250Z,2.75
2023-01-27T08:32:50.178Z,2.88
2023-01-27T08:34:12.198Z,3.00
2023-01-27T08:35:34.775Z,3.40
2023-01-27T08:36:55.307Z,2.65
2023-01-27T08:38:17.826Z,2.42
2023-01-27T08:39:38.950Z,2.83
2023-01-27T08:41:01.645Z,2.47
2023-01-27T08:42:22.596Z,2.72
2023-01-27T08:43:43.624Z,2.75
2023-01-27T08:45:04.275Z,2.60
2023-01-27T08:46:26.211Z,2.38
2023-01-27T08:49:06.784Z,2.20
2023-01-27T08:50:29.229Z,2.85
2023-01-27T08:51:49.876Z,2.70
2023-01-27T08:53:10.199Z,3.92
2023-01-27T08:54:30.844Z,3.22
2023-01-27T08:55:51.620Z,3.03
2023-01-27T08:57:12.393Z,2.85
2023-01-27T08:58:33.310Z,2.55
2023-01-27T08:59:53.904Z,2.75
2023-01-27T09:01:15.787Z,3.45
2023-01-27T09:02:36.354Z,2.95
2023-01-27T09:03:56.957Z,2.95
2023-01-27T09:05:17.748Z,3.08
2023-01-27T09:06:40.221Z,2.97
2023-01-27T09:08:00.551Z,2.63
2023-01-27T09:09:21.202Z,2.60
2023-01-27T09:10:42.188Z,2.88
2023-01-27T09:12:02.970Z,2.67
2023-01-27T09:13:23.583Z,2.45
2023-01-27T09:14:44.305Z,2.37
2023-01-27T09:16:05.413Z,2.78
2023-01-27T09:17:26.001Z,2.90
2023-01-27T09:18:46.610Z,2.80
2023-01-27T09:20:08.393Z,3.10
2023-01-27T09:22:50.508Z,2.72
2023-01-27T09:24:10.919Z,2.55
2023-01-27T09:25:31.519Z,2.58
2023-01-27T09:26:52.151Z,2.97
2023-01-27T09:28:12.874Z,2.55
2023-01-27T09:29:33.668Z,2.50
2023-01-27T09:30:57.677Z,2.60
2023-01-27T09:32:18.680Z,2.70
2023-01-27T09:33:39.392Z,2.70
2023-01-27T09:34:59.782Z,2.22
2023-01-27T09:36:21.706Z,2.63
2023-01-27T09:39:07.205Z,2.50
2023-01-27T09:40:30.999Z,2.30
2023-01-27T09:42:12.084Z,1.98
2023-01-27T09:45:21.090Z,2.30
2023-01-27T09:46:59.847Z,2.42
2023-01-27T09:48:39.468Z,2.58
2023-01-27T09:50:24.356Z,2.15
2023-01-27T09:51:54.963Z,2.50
2023-01-27T09:53:51.713Z,2.50
2023-01-27T09:55:17.763Z,2.40
2023-01-27T09:56:47.723Z,2.33
2023-01-27T09:58:13.114Z,2.40
2023-01-27T10:00:01.321Z,2.53
2023-01-27T10:01:30.007Z,2.60
2023-01-27T10:03:08.235Z,2.47
2023-01-27T10:05:11.803Z,2.47
2023-01-27T10:06:50.982Z,2.50
2023-01-27T10:08:32.797Z,2.13
2023-01-27T10:10:13.373Z,2.30
2023-01-27T10:11:41.830Z,2.60
2023-01-27T10:13:16.567Z,2.45
2023-01-27T10:14:44.057Z,2.92
2023-01-27T10:16:21.565Z,3.10
2023-01-27T10:17:51.375Z,2.72
2023-01-27T10:19:33.251Z,2.65
2023-01-27T10:22:19.311Z,2.17
2023-01-27T10:23:51.171Z,2.60
2023-01-27T10:26:41.147Z,2.97
2023-01-27T10:28:07.551Z,2.70
2023-01-27T10:29:34.035Z,2.83
2023-01-27T10:30:59.611Z,2.97
2023-01-27T10:32:26.273Z,2.22
2023-01-27T10:33:50.832Z,2.80
2023-01-27T10:35:17.291Z,2.47
2023-01-27T10:36:43.964Z,2.58
2023-01-27T10:38:09.018Z,2.58
2023-01-27T10:39:36.812Z,2.60
2023-01-27T10:41:00.131Z,2.42
2023-01-27T10:42:26.365Z,2.53
2023-01-27T10:43:57.247Z,2.40
2023-01-27T10:45:30.598Z,2.25
2023-01-27T10:46:57.053Z,2.70
2023-01-27T10:48:28.105Z,2.55
2023-01-27T10:49:50.505Z,2.22
2023-01-27T10:51:13.999Z,2.33
2023-01-27T10:52:38.242Z,2.00
2023-01-27T10:54:03.962Z,1.98
2023-01-27T10:55:27.089Z,1.85
2023-01-27T10:56:49.712Z,1.90
2023-01-27T10:58:15.234Z,2.67
2023-01-27T10:59:40.115Z,1.98
2023-01-27T11:02:46.107Z,1.70
2023-01-27T11:04:13.763Z,1.55
2023-01-27T11:05:37.750Z,1.95
2023-01-27T11:06:59.375Z,1.85
2023-01-27T11:09:46.347Z,1.67
2023-01-27T11:11:08.755Z,1.50
2023-01-27T11:12:31.597Z,1.40
2023-01-27T11:14:00.585Z,1.40
2023-01-27T11:15:31.344Z,1.20
2023-01-27T11:16:53.273Z,1.00
2023-01-27T11:18:17.690Z,1.00
2023-01-27T11:19:44.909Z,1.13
2023-01-27T11:21:07.054Z,1.15
2023-01-27T11:22:31.178Z,1.10
2023-01-27T11:23:54.593Z,1.20
2023-01-27T11:25:24.556Z,1.20
2023-01-27T11:26:48.639Z,1.17
2023-01-27T11:28:17.694Z,1.58
2023-01-27T11:29:42.894Z,1.05
2023-01-27T11:31:21.248Z,1.15
2023-01-27T11:32:48.129Z,1.30
2023-01-27T11:34:14.225Z,1.50
2023-01-27T11:35:34.854Z,1.30
2023-01-27T11:36:55.428Z,1.50
2023-01-27T11:38:19.896Z,1.48
2023-01-27T11:39:40.408Z,1.20
2023-01-27T11:41:00.920Z,1.52
2023-01-27T11:42:22.075Z,1.33
2023-01-27T11:43:42.861Z,1.27
2023-01-27T11:45:05.170Z,1.52
2023-01-27T11:46:26.135Z,1.70
2023-01-27T11:47:49.322Z,1.50
2023-01-27T11:49:10.307Z,1.83
2023-01-27T11:50:32.800Z,1.70
2023-01-27T11:51:59.001Z,1.30
2023-01-27T11:53:24.180Z,1.52
2023-01-27T11:54:48.627Z,1.30
2023-01-27T11:56:15.871Z,2.10
2023-01-27T11:57:43.555Z,1.52
2023-01-27T11:59:06.955Z,2.05
2023-01-27T12:00:42.682Z,2.08
2023-01-27T12:02:15.303Z,1.65
2023-01-27T12:03:46.430Z,1.60
2023-01-27T12:05:09.004Z,1.42
2023-01-27T12:06:34.518Z,1.30
2023-01-27T12:07:57.367Z,1.30
2023-01-27T12:09:32.718Z,1.33
2023-01-27T12:10:53.338Z,1.08
2023-01-27T12:12:22.643Z,1.65
2023-01-27T12:13:48.617Z,1.30
2023-01-27T12:15:15.256Z,1.27
2023-01-27T12:16:44.077Z,1.30
2023-01-27T12:18:12.850Z,2.28
2023-01-27T12:19:37.091Z,2.20
2023-01-27T12:20:59.088Z,1.70
2023-01-27T12:22:25.824Z,2.45
2023-01-27T12:23:49.991Z,2.00
2023-01-27T12:25:25.009Z,1.77
2023-01-27T12:26:45.744Z,1.80
2023-01-27T12:28:06.666Z,1.90
2023-01-27T12:29:29.700Z,1.55
2023-01-27T12:30:52.021Z,1.73
2023-01-27T12:32:18.491Z,1.88
2023-01-27T12:33:42.278Z,1.60
2023-01-27T12:35:03.157Z,1.80
2023-01-27T12:36:24.305Z,1.83
2023-01-27T12:37:45.204Z,1.60
2023-01-27T12:39:06.255Z,1.55
2023-01-27T12:40:27.411Z,1.80
2023-01-27T12:41:47.970Z,1.92
2023-01-27T12:43:13.333Z,1.67
2023-01-27T12:44:41.892Z,2.10
2023-01-27T12:46:20.701Z,3.13
2023-01-27T12:47:55.666Z,3.67
2023-01-27T12:49:20.825Z,5.25
2023-01-27T12:50:42.777Z,3.25
2023-01-27T12:52:05.562Z,2.83
2023-01-27T12:53:27.322Z,2.80
2023-01-27T12:54:48.209Z,2.20
2023-01-27T12:56:12.148Z,2.58
2023-01-27T12:57:33.294Z,2.40
2023-01-27T12:58:57.809Z,2.03
2023-01-27T13:00:18.841Z,2.00
2023-01-27T13:01:39.937Z,1.80
2023-01-27T13:03:06.187Z,2.10
2023-01-27T13:04:27.246Z,1.88
2023-01-27T13:05:47.622Z,2.00
2023-01-27T13:07:12.626Z,1.98
2023-01-27T13:08:36.151Z,2.03
2023-01-27T13:10:00.736Z,1.98
2023-01-27T13:11:32.832Z,2.00
2023-01-27T13:12:55.291Z,1.70
2023-01-27T13:14:17.218Z,2.08
2023-01-27T13:15:37.915Z,1.80
2023-01-27T13:16:58.569Z,1.80
2023-01-27T13:18:23.763Z,1.92
2023-01-27T13:19:45.816Z,1.80
2023-01-27T13:21:15.035Z,2.10
2023-01-27T13:22:42.100Z,2.47
2023-01-27T13:24:05.369Z,2.20
2023-01-27T13:25:29.547Z,2.22
2023-01-27T13:26:51.605Z,2.00
2023-01-27T13:28:15.631Z,2.13
2023-01-27T13:29:36.631Z,2.20
2023-01-27T13:31:00.239Z,2.22
2023-01-27T13:32:23.837Z,1.90
2023-01-27T13:33:48.893Z,2.30
2023-01-27T13:35:17.550Z,2.00
2023-01-27T13:36:40.784Z,2.35
2023-01-27T13:38:04.915Z,2.35
2023-01-27T13:39:33.507Z,2.45
2023-01-27T13:40:53.870Z,2.20
2023-01-27T13:42:19.866Z,2.27
2023-01-27T13:43:41.364Z,2.17
2023-01-27T13:45:04.363Z,2.20
2023-01-27T13:46:28.148Z,2.40
2023-01-27T13:47:52.458Z,2.30
2023-01-27T13:49:21.448Z,2.05
2023-01-27T13:50:44.288Z,2.30
2023-01-27T13:52:05.850Z,2.38
2023-01-27T13:53:26.427Z,2.45
2023-01-27T13:54:46.952Z,2.83
2023-01-27T13:56:21.562Z,2.65
2023-01-27T13:57:54.581Z,2.53
2023-01-27T13:59:31.515Z,2.90
2023-01-27T14:00:57.580Z,2.75
2023-01-27T14:02:38.752Z,2.63
2023-01-27T14:04:18.989Z,2.33
2023-01-27T14:05:48.651Z,2.88
2023-01-27T14:07:18.368Z,2.92
2023-01-27T14:08:50.294Z,2.42
2023-01-27T14:10:18.378Z,2.58
2023-01-27T14:11:45.141Z,2.40
2023-01-27T14:13:28.296Z,2.20
2023-01-27T14:14:59.295Z,2.47
2023-01-27T14:16:25.079Z,2.53
2023-01-27T14:17:52.268Z,2.25
2023-01-27T14:19:26.133Z,2.42
2023-01-27T14:21:01.101Z,2.90
2023-01-27T14:22:30.355Z,2.40
2023-01-27T14:23:56.712Z,3.00
2023-01-27T14:25:23.291Z,2.72
2023-01-27T14:26:49.044Z,2.92
2023-01-27T14:28:19.521Z,2.60
2023-01-27T14:29:44.691Z,2.40
2023-01-27T14:31:10.987Z,4.10
2023-01-27T14:32:35.888Z,3.72
2023-01-27T14:34:03.738Z,2.75
2023-01-27T14:35:31.938Z,2.25
2023-01-27T14:36:57.664Z,3.10
2023-01-27T14:38:23.950Z,2.97
2023-01-27T14:39:52.140Z,2.50
2023-01-27T14:41:18.678Z,4.47
2023-01-27T14:42:44.632Z,2.88
2023-01-27T14:44:14.232Z,2.67
2023-01-27T14:45:36.719Z,2.95
2023-01-27T14:47:01.585Z,3.75
2023-01-27T14:48:38.843Z,2.78
2023-01-27T14:50:10.890Z,3.17
2023-01-27T14:51:36.705Z,2.70
2023-01-27T14:53:05.789Z,2.63
2023-01-27T14:54:37.553Z,2.53
2023-01-27T14:56:03.344Z,2.72
2023-01-27T14:57:31.128Z,2.33
2023-01-27T14:58:56.866Z,2.40
2023-01-27T15:00:26.712Z,3.42
2023-01-27T15:01:51.257Z,3.50
2023-01-27T15:03:58.877Z,2.75
2023-01-27T15:05:26.095Z,2.47
2023-01-27T15:06:51.150Z,2.67
2023-01-27T15:08:16.381Z,2.70
2023-01-27T15:09:58.300Z,3.13
2023-01-27T15:11:37.280Z,2.92
2023-01-27T15:13:28.359Z,2.38
2023-01-27T15:15:02.506Z,2.45
2023-01-27T15:16:41.555Z,2.33
2023-01-27T15:18:21.022Z,2.95
2023-01-27T15:19:51.738Z,2.38
2023-01-27T15:21:25.408Z,2.50
2023-01-27T15:22:55.613Z,2.20
2023-01-27T15:24:36.629Z,2.28
2023-01-27T15:25:58.603Z,2.80
2023-01-27T15:27:19.431Z,2.53
2023-01-27T15:28:42.033Z,3.40
2023-01-27T15:30:07.186Z,2.85
2023-01-27T15:31:28.857Z,2.35
2023-01-27T15:32:49.774Z,3.20
2023-01-27T15:34:21.210Z,2.88
2023-01-27T15:35:41.722Z,2.53
2023-01-27T15:37:03.526Z,2.67
2023-01-27T15:38:35.401Z,2.40
2023-01-27T15:40:09.449Z,2.60
2023-01-27T15:41:30.313Z,2.50
2023-01-27T15:42:52.096Z,2.80
2023-01-27T15:44:17.702Z,2.58
2023-01-27T15:45:39.454Z,2.53
2023-01-27T15:47:07.461Z,2.55
2023-01-27T15:48:32.891Z,2.80
2023-01-27T15:50:04.090Z,3.10
2023-01-27T15:51:24.632Z,3.10
2023-01-27T15:52:46.623Z,2.87
2023-01-27T15:54:15.459Z,3.28
2023-01-27T15:55:37.419Z,3.67
2023-01-27T15:57:00.152Z,3.50
2023-01-27T15:58:23.787Z,3.53
2023-01-27T15:59:58.432Z,2.90
2023-01-27T16:01:25.520Z,3.40
2023-01-27T16:02:51.492Z,4.32
2023-01-27T16:04:15.810Z,3.70
2023-01-27T16:05:37.545Z,3.22
2023-01-27T16:08:19.422Z,3.30
2023-01-27T16:09:44.683Z,3.30
2023-01-27T16:11:22.727Z,3.70
2023-01-27T16:12:44.471Z,4.70
2023-01-27T16:14:33.257Z,4.30
2023-01-27T16:16:21.949Z,3.80
2023-01-27T16:17:59.450Z,3.90
2023-01-27T16:19:22.877Z,4.43
2023-01-27T16:20:47.873Z,4.78
2023-01-27T16:22:13.421Z,4.03
2023-01-27T16:23:43.290Z,4.53
2023-01-27T16:25:19.666Z,4.35
2023-01-27T16:26:44.377Z,4.20
2023-01-27T16:28:07.707Z,4.43
2023-01-27T16:29:33.731Z,4.30
2023-01-27T16:31:03.048Z,4.22
2023-01-27T16:32:27.549Z,4.20
2023-01-27T16:33:49.781Z,4.28
2023-01-27T16:35:17.058Z,4.18
2023-01-27T16:36:38.063Z,4.13
2023-01-27T16:38:04.923Z,4.18
2023-01-27T16:39:32.654Z,3.83
2023-01-27T16:40:56.096Z,4.30
2023-01-27T16:42:16.966Z,3.90
2023-01-27T16:43:43.039Z,4.30
2023-01-27T16:45:07.312Z,4.63
2023-01-27T16:46:32.390Z,4.82
2023-01-27T16:47:56.349Z,4.60
2023-01-27T16:49:21.639Z,4.05
2023-01-27T16:50:42.936Z,3.90
2023-01-27T16:52:04.732Z,4.55
2023-01-27T16:53:25.643Z,4.50
2023-01-27T16:54:50.525Z,4.30
2023-01-27T16:56:22.016Z,4.70
2023-01-27T16:57:44.784Z,4.75
2023-01-27T16:59:06.791Z,4.03
2023-01-27T17:00:30.308Z,4.20
2023-01-27T17:01:52.275Z,4.03
2023-01-27T17:03:15.597Z,4.53
2023-01-27T17:04:36.164Z,4.20
2023-01-27T17:05:58.014Z,4.45
2023-01-27T17:07:18.582Z,4.10
2023-01-27T17:08:43.857Z,4.45
2023-01-27T17:10:08.446Z,4.65
2023-01-27T17:11:31.380Z,4.50
2023-01-27T17:12:51.742Z,4.68
2023-01-27T17:14:28.547Z,4.50
2023-01-27T17:15:50.883Z,4.18
2023-01-27T17:17:19.129Z,4.57
2023-01-27T17:18:51.667Z,4.78
2023-01-27T17:20:21.248Z,5.22
2023-01-27T17:21:44.643Z,4.13
2023-01-27T17:23:05.670Z,4.50
2023-01-27T17:24:29.260Z,4.93
2023-01-27T17:25:50.408Z,4.78
2023-01-27T17:27:21.722Z,4.78
2023-01-27T17:28:44.266Z,4.35
2023-01-27T17:30:11.432Z,4.65
2023-01-27T17:31:34.664Z,4.20
2023-01-27T17:32:57.916Z,4.70
2023-01-27T17:34:19.982Z,4.43
2023-01-27T17:35:40.968Z,4.28
2023-01-27T17:37:06.331Z,4.40
2023-01-27T17:38:36.102Z,4.13
2023-01-27T17:39:59.073Z,4.18
2023-01-27T17:41:33.139Z,4.22
2023-01-27T17:42:54.955Z,5.05
2023-01-27T17:44:15.876Z,5.10
2023-01-27T17:45:36.683Z,4.78
2023-01-27T17:46:59.807Z,4.30
2023-01-27T17:48:20.386Z,4.63
2023-01-27T17:49:40.975Z,4.25
2023-01-27T17:51:01.940Z,4.07
2023-01-27T17:52:24.403Z,4.25
2023-01-27T17:53:44.970Z,4.38
2023-01-27T17:55:06.405Z,4.47
2023-01-27T17:56:29.259Z,4.90
2023-01-27T17:57:50.786Z,4.40
2023-01-27T17:59:16.555Z,4.13
2023-01-27T18:00:39.085Z,4.13
2023-01-27T18:02:02.200Z,4.18
2023-01-27T18:03:23.749Z,4.43
2023-01-27T18:04:44.773Z,4.78
2023-01-27T18:06:06.911Z,5.50
2023-01-27T18:07:27.425Z,5.72
2023-01-27T18:08:52.769Z,5.43
2023-01-27T18:10:23.815Z,5.90
2023-01-27T18:11:55.772Z,5.95
2023-01-27T18:13:35.673Z,5.60
2023-01-27T18:14:57.788Z,5.25
2023-01-27T18:16:20.196Z,4.72
2023-01-27T18:17:41.043Z,4.80
2023-01-27T18:19:09.132Z,4.95
2023-01-27T18:20:31.121Z,5.47
2023-01-27T18:22:01.448Z,5.53
2023-01-27T18:23:26.831Z,6.07
2023-01-27T18:24:52.110Z,5.53
2023-01-27T18:26:19.234Z,5.40
2023-01-27T18:27:40.499Z,5.60
2023-01-27T18:29:03.986Z,6.18
2023-01-27T18:30:26.374Z,5.80
2023-01-27T18:31:49.179Z,4.93
2023-01-27T18:33:10.311Z,5.60
2023-01-27T18:34:32.160Z,4.93
2023-01-27T18:35:56.730Z,5.15
2023-01-27T18:37:28.543Z,5.15
2023-01-27T18:40:27.492Z,5.10
2023-01-27T18:41:48.190Z,5.30
2023-01-27T18:43:09.468Z,5.38
2023-01-27T18:44:29.864Z,4.90
2023-01-27T18:45:51.725Z,5.60
2023-01-27T18:47:25.729Z,5.55
2023-01-27T18:48:46.434Z,7.05
2023-01-27T18:50:14.078Z,5.20
2023-01-27T18:51:34.525Z,5.75
2023-01-27T18:52:55.125Z,5.40
2023-01-27T18:54:16.253Z,6.28
2023-01-27T18:55:37.025Z,6.20
2023-01-27T18:56:57.384Z,6.93